F/V Carmalia — FMFK — position and weather

sailwx.info

Track history (hours):
 
Tides and Currents Weather Stations Pressure Air Temp Water Temp Dewpoint Dewpoint Depression Visibility Wind Speed Wind Dir Waves Ship Positions

F/V Carmalia

Last reported at 2016-May-28 23:16 UTC. Time now 2016-May-29 03:51 UTC.
Position N 47°40' W 005°10'.

Length 17 m.

Type: Fishing. MMSI: 228222900.

Date/timePositionNaut miles runAvg speedWind from/ knotsBaromVisibWave heightAir tempDewpointWater temp
2016-May-28 23:16N 47°40' W 005°10'2 2.2
2016-May-28 22:33N 47°39' W 005°08'3 2.4
2016-May-28 21:19N 47°38' W 005°04'2 2.5
2016-May-28 20:33N 47°37' W 005°01'46 6.6
2016-May-28 13:33N 47°39' W 003°53'10 9.7
2016-May-28 12:33N 47°40' W 003°39'10 9.9
2016-May-28 11:33N 47°41' W 003°24'3 3.3
2016-May-28 10:33N 47°44' W 003°22'0 0.1
2016-May-28 09:33N 47°44' W 003°22'0 0.0
2016-May-28 08:33N 47°44' W 003°22'0 0.0
2016-May-28 07:33N 47°44' W 003°22'3 3.2
2016-May-28 06:33N 47°41' W 003°24'10 9.5
2016-May-28 05:32N 47°38' W 003°38'9 9.5
2016-May-28 04:33N 47°34' W 003°51'10 9.5
2016-May-28 03:33N 47°31' W 004°04'9 9.3
2016-May-28 02:33N 47°27' W 004°16'3 2.9
2016-May-28 01:33N 47°25' W 004°19'3 2.5
2016-May-28 00:16N 47°23' W 004°23'35 2.5
2016-May-27 10:33N 47°22' W 005°14'5 4.8
2016-May-27 09:28N 47°23' W 005°22'6 2.5
2016-May-27 07:08N 47°24' W 005°13'2 2.8
2016-May-27 06:23N 47°26' W 005°13'3 2.7
2016-May-27 05:22N 47°29' W 005°12'2 2.4
2016-May-27 04:33N 47°30' W 005°12'3 2.3
2016-May-27 03:20N 47°33' W 005°11'5 2.1
2016-May-27 01:09N 47°37' W 005°08'2 2.8
2016-May-27 00:22N 47°40' W 005°09'3 3.1
2016-May-26 23:33N 47°42' W 005°09'1 0.2
2016-May-26 19:32N 47°42' W 005°10'2 0.4
2016-May-26 16:06N 47°41' W 005°12'2 0.0
2016-May-25 00:28N 47°41' W 005°14'57 4.8
2016-May-24 12:33N 47°39' W 003°50'9 9.0
2016-May-24 11:34N 47°40' W 003°37'10 9.5
2016-May-24 10:33N 47°42' W 003°23'2 2.1
2016-May-24 09:33N 47°44' W 003°22'0 0.0
2016-May-24 08:33N 47°44' W 003°22'0 0.0
2016-May-24 07:33N 47°44' W 003°22'  
2016-May-20 09:31N 47°44' W 003°22'0 0.0
2016-May-19 21:33N 47°44' W 003°22'0 0.1
2016-May-19 20:34N 47°44' W 003°22'0 0.0
2016-May-19 19:34N 47°44' W 003°22'2 1.9
2016-May-19 18:34N 47°42' W 003°22'9 9.2
2016-May-19 17:33N 47°38' W 003°35'9 9.4
2016-May-19 16:33N 47°33' W 003°47'  
Track history (hours):
 
Tides and Currents Weather Stations Pressure Air Temp Water Temp Dewpoint Dewpoint Depression Visibility Wind Speed Wind Dir Waves Ship Positions

F/V Carmalia

Last reported at 2016-May-28 23:16 UTC. Time now 2016-May-29 03:51 UTC.
Position N 47°40' W 005°10'.

Length 17 m.

Type: Fishing. MMSI: 228222900.

Date/timePositionNaut miles runAvg speedWind from/ knotsBaromVisibWave heightAir tempDewpointWater temp
2016-May-28 23:16N 47°40' W 005°10'2 2.2
2016-May-28 22:33N 47°39' W 005°08'3 2.4
2016-May-28 21:19N 47°38' W 005°04'2 2.5
2016-May-28 20:33N 47°37' W 005°01'46 6.6
2016-May-28 13:33N 47°39' W 003°53'10 9.7
2016-May-28 12:33N 47°40' W 003°39'10 9.9
2016-May-28 11:33N 47°41' W 003°24'3 3.3
2016-May-28 10:33N 47°44' W 003°22'0 0.1
2016-May-28 09:33N 47°44' W 003°22'0 0.0
2016-May-28 08:33N 47°44' W 003°22'0 0.0
2016-May-28 07:33N 47°44' W 003°22'3 3.2
2016-May-28 06:33N 47°41' W 003°24'10 9.5
2016-May-28 05:32N 47°38' W 003°38'9 9.5
2016-May-28 04:33N 47°34' W 003°51'10 9.5
2016-May-28 03:33N 47°31' W 004°04'9 9.3
2016-May-28 02:33N 47°27' W 004°16'3 2.9
2016-May-28 01:33N 47°25' W 004°19'3 2.5
2016-May-28 00:16N 47°23' W 004°23'35 2.5
2016-May-27 10:33N 47°22' W 005°14'5 4.8
2016-May-27 09:28N 47°23' W 005°22'6 2.5
2016-May-27 07:08N 47°24' W 005°13'2 2.8
2016-May-27 06:23N 47°26' W 005°13'3 2.7
2016-May-27 05:22N 47°29' W 005°12'2 2.4
2016-May-27 04:33N 47°30' W 005°12'3 2.3
2016-May-27 03:20N 47°33' W 005°11'5 2.1
2016-May-27 01:09N 47°37' W 005°08'2 2.8
2016-May-27 00:22N 47°40' W 005°09'3 3.1
2016-May-26 23:33N 47°42' W 005°09'1 0.2
2016-May-26 19:32N 47°42' W 005°10'2 0.4
2016-May-26 16:06N 47°41' W 005°12'2 0.0
2016-May-25 00:28N 47°41' W 005°14'57 4.8
2016-May-24 12:33N 47°39' W 003°50'9 9.0
2016-May-24 11:34N 47°40' W 003°37'10 9.5
2016-May-24 10:33N 47°42' W 003°23'2 2.1
2016-May-24 09:33N 47°44' W 003°22'0 0.0
2016-May-24 08:33N 47°44' W 003°22'0 0.0
2016-May-24 07:33N 47°44' W 003°22'  
2016-May-20 09:31N 47°44' W 003°22'0 0.0
2016-May-19 21:33N 47°44' W 003°22'0 0.1
2016-May-19 20:34N 47°44' W 003°22'0 0.0
2016-May-19 19:34N 47°44' W 003°22'2 1.9
2016-May-19 18:34N 47°42' W 003°22'9 9.2
2016-May-19 17:33N 47°38' W 003°35'9 9.4
2016-May-19 16:33N 47°33' W 003°47'  

Dump ship's entire track history